sensor_id;sensor_type;location;lat;lon;timestamp;pressure;altitude;pressure_sealevel;temperature;humidity
20394;BME280;10356;50.544;9.642;2023-08-01T00:00:26;97019.34;;;16.66;100.00
20394;BME280;10356;50.544;9.642;2023-08-01T00:02:53;97012.81;;;16.62;100.00
20394;BME280;10356;50.544;9.642;2023-08-01T00:05:20;97013.81;;;16.61;100.00
20394;BME280;10356;50.544;9.642;2023-08-01T00:07:46;97009.81;;;16.65;100.00
20394;BME280;10356;50.544;9.642;2023-08-01T00:10:13;96999.91;;;16.67;100.00
20394;BME280;10356;50.544;9.642;2023-08-01T00:12:41;96986.75;;;16.67;100.00
20394;BME280;10356;50.544;9.642;2023-08-01T00:15:08;96986.75;;;16.67;100.00
20394;BME280;10356;50.544;9.642;2023-08-01T00:17:36;96984.31;;;16.65;100.00
20394;BME280;10356;50.544;9.642;2023-08-01T00:20:04;96962.72;;;16.70;100.00
20394;BME280;10356;50.544;9.642;2023-08-01T00:22:30;96968.34;;;16.67;100.00
20394;BME280;10356;50.544;9.642;2023-08-01T00:24:57;96960.44;;;16.67;100.00
20394;BME280;10356;50.544;9.642;2023-08-01T00:27:24;96958.84;;;16.66;100.00
20394;BME280;10356;50.544;9.642;2023-08-01T00:29:50;96952.19;;;16.70;100.00
20394;BME280;10356;50.544;9.642;2023-08-01T00:32:17;96950.56;;;16.69;100.00
20394;BME280;10356;50.544;9.642;2023-08-01T00:34:43;96952.34;;;16.62;100.00
20394;BME280;10356;50.544;9.642;2023-08-01T00:37:11;96946.38;;;16.53;100.00
20394;BME280;10356;50.544;9.642;2023-08-01T00:39:37;96956.78;;;16.61;100.00
20394;BME280;10356;50.544;9.642;2023-08-01T00:42:04;96937.53;;;16.61;100.00
20394;BME280;10356;50.544;9.642;2023-08-01T00:44:31;96937.97;;;16.64;100.00
20394;BME280;10356;50.544;9.642;2023-08-01T00:46:57;96921.81;;;16.67;100.00
20394;BME280;10356;50.544;9.642;2023-08-01T00:49:24;96918.56;;;16.65;100.00
20394;BME280;10356;50.544;9.642;2023-08-01T00:51:52;96920.63;;;16.70;100.00
20394;BME280;10356;50.544;9.642;2023-08-01T00:54:18;96925.06;;;16.69;100.00
20394;BME280;10356;50.544;9.642;2023-08-01T00:56:45;96911.38;;;16.74;100.00
20394;BME280;10356;50.544;9.642;2023-08-01T00:59:12;96915.59;;;16.75;100.00
20394;BME280;10356;50.544;9.642;2023-08-01T01:01:38;96909.78;;;16.79;100.00
20394;BME280;10356;50.544;9.642;2023-08-01T01:04:05;96902.47;;;16.75;100.00
20394;BME280;10356;50.544;9.642;2023-08-01T01:06:32;96900.44;;;16.77;100.00
20394;BME280;10356;50.544;9.642;2023-08-01T01:09:02;96869.66;;;16.71;100.00
20394;BME280;10356;50.544;9.642;2023-08-01T01:11:30;96814.75;;;16.61;100.00
20394;BME280;10356;50.544;9.642;2023-08-01T01:13:56;96825.06;;;16.63;100.00
20394;BME280;10356;50.544;9.642;2023-08-01T01:16:23;96821.06;;;16.67;100.00
20394;BME280;10356;50.544;9.642;2023-08-01T01:18:49;96802.44;;;16.62;100.00
20394;BME280;10356;50.544;9.642;2023-08-01T01:21:17;96814.56;;;16.63;100.00
20394;BME280;10356;50.544;9.642;2023-08-01T01:23:44;96828.66;;;16.55;100.00
20394;BME280;10356;50.544;9.642;2023-08-01T01:26:11;96831.50;;;16.54;100.00
20394;BME280;10356;50.544;9.642;2023-08-01T01:28:39;96828.59;;;16.49;100.00
20394;BME280;10356;50.544;9.642;2023-08-01T01:31:07;96830.16;;;16.43;100.00
20394;BME280;10356;50.544;9.642;2023-08-01T01:33:34;96820.25;;;16.45;100.00
20394;BME280;10356;50.544;9.642;2023-08-01T01:36:01;96812.38;;;16.45;100.00
20394;BME280;10356;50.544;9.642;2023-08-01T01:38:29;96797.06;;;16.49;100.00
20394;BME280;10356;50.544;9.642;2023-08-01T01:40:55;96795.16;;;16.43;100.00
20394;BME280;10356;50.544;9.642;2023-08-01T01:43:22;96795.88;;;16.51;100.00
20394;BME280;10356;50.544;9.642;2023-08-01T01:45:48;96789.34;;;16.47;100.00
20394;BME280;10356;50.544;9.642;2023-08-01T01:48:15;96780.44;;;16.48;100.00
20394;BME280;10356;50.544;9.642;2023-08-01T01:50:41;96793.44;;;16.50;100.00
20394;BME280;10356;50.544;9.642;2023-08-01T01:53:08;96778.09;;;16.53;100.00
20394;BME280;10356;50.544;9.642;2023-08-01T01:55:36;96776.03;;;16.49;100.00
20394;BME280;10356;50.544;9.642;2023-08-01T01:58:02;96778.28;;;16.52;100.00
20394;BME280;10356;50.544;9.642;2023-08-01T02:00:29;96773.19;;;16.50;100.00
20394;BME280;10356;50.544;9.642;2023-08-01T02:02:56;96765.88;;;16.46;100.00
20394;BME280;10356;50.544;9.642;2023-08-01T02:05:22;96754.47;;;16.39;100.00
20394;BME280;10356;50.544;9.642;2023-08-01T02:07:49;96738.09;;;16.37;100.00
20394;BME280;10356;50.544;9.642;2023-08-01T02:10:15;96738.34;;;16.42;100.00
20394;BME280;10356;50.544;9.642;2023-08-01T02:12:43;96749.22;;;16.39;100.00
20394;BME280;10356;50.544;9.642;2023-08-01T02:15:09;96752.72;;;16.46;100.00
20394;BME280;10356;50.544;9.642;2023-08-01T02:17:36;96753.72;;;16.45;100.00
20394;BME280;10356;50.544;9.642;2023-08-01T02:20:03;96749.06;;;16.47;100.00
20394;BME280;10356;50.544;9.642;2023-08-01T02:22:30;96752.97;;;16.51;100.00
20394;BME280;10356;50.544;9.642;2023-08-01T02:24:56;96749.78;;;16.55;100.00
20394;BME280;10356;50.544;9.642;2023-08-01T02:27:23;96747.72;;;16.51;100.00
20394;BME280;10356;50.544;9.642;2023-08-01T02:29:51;96737.81;;;16.53;100.00
20394;BME280;10356;50.544;9.642;2023-08-01T02:32:17;96728.31;;;16.52;100.00
20394;BME280;10356;50.544;9.642;2023-08-01T02:34:44;96733.19;;;16.55;100.00
20394;BME280;10356;50.544;9.642;2023-08-01T02:37:11;96733.22;;;16.61;100.00
20394;BME280;10356;50.544;9.642;2023-08-01T02:39:37;96722.47;;;16.56;100.00
20394;BME280;10356;50.544;9.642;2023-08-01T02:42:04;96728.75;;;16.55;100.00
20394;BME280;10356;50.544;9.642;2023-08-01T02:44:30;96720.91;;;16.62;100.00
20394;BME280;10356;50.544;9.642;2023-08-01T02:46:58;96699.63;;;16.57;100.00
20394;BME280;10356;50.544;9.642;2023-08-01T02:49:25;96690.75;;;16.64;100.00
20394;BME280;10356;50.544;9.642;2023-08-01T02:51:51;96693.22;;;16.72;100.00
20394;BME280;10356;50.544;9.642;2023-08-01T02:54:17;96690.16;;;16.69;100.00
20394;BME280;10356;50.544;9.642;2023-08-01T02:56:44;96687.53;;;16.69;100.00
20394;BME280;10356;50.544;9.642;2023-08-01T02:59:10;96685.94;;;16.68;100.00
20394;BME280;10356;50.544;9.642;2023-08-01T03:01:38;96685.53;;;16.71;100.00
20394;BME280;10356;50.544;9.642;2023-08-01T03:04:06;96674.78;;;16.66;100.00
20394;BME280;10356;50.544;9.642;2023-08-01T03:06:33;96679.91;;;16.74;100.00
20394;BME280;10356;50.544;9.642;2023-08-01T03:08:59;96678.88;;;16.75;100.00
20394;BME280;10356;50.544;9.642;2023-08-01T03:11:26;96674.03;;;16.72;100.00
20394;BME280;10356;50.544;9.642;2023-08-01T03:13:52;96672.63;;;16.76;100.00
20394;BME280;10356;50.544;9.642;2023-08-01T03:16:19;96667.72;;;16.73;100.00
20394;BME280;10356;50.544;9.642;2023-08-01T03:18:45;96663.66;;;16.70;100.00
20394;BME280;10356;50.544;9.642;2023-08-01T03:21:13;96664.53;;;16.77;100.00
20394;BME280;10356;50.544;9.642;2023-08-01T03:23:40;96661.06;;;16.77;100.00
20394;BME280;10356;50.544;9.642;2023-08-01T03:26:06;96661.69;;;16.79;100.00
20394;BME280;10356;50.544;9.642;2023-08-01T03:28:33;96653.41;;;16.82;100.00
20394;BME280;10356;50.544;9.642;2023-08-01T03:30:59;96654.84;;;16.85;100.00
20394;BME280;10356;50.544;9.642;2023-08-01T03:33:26;96647.13;;;16.83;100.00
20394;BME280;10356;50.544;9.642;2023-08-01T03:35:52;96640.84;;;16.77;100.00
20394;BME280;10356;50.544;9.642;2023-08-01T03:38:20;96646.34;;;16.83;100.00
20394;BME280;10356;50.544;9.642;2023-08-01T03:40:47;96641.06;;;16.76;100.00
20394;BME280;10356;50.544;9.642;2023-08-01T03:43:13;96648.53;;;16.79;100.00
20394;BME280;10356;50.544;9.642;2023-08-01T03:45:39;96655.81;;;16.77;100.00
20394;BME280;10356;50.544;9.642;2023-08-01T03:48:06;96643.94;;;16.88;100.00
20394;BME280;10356;50.544;9.642;2023-08-01T03:50:32;96650.22;;;16.87;100.00
20394;BME280;10356;50.544;9.642;2023-08-01T03:52:59;96654.44;;;16.88;100.00
20394;BME280;10356;50.544;9.642;2023-08-01T03:55:27;96646.53;;;16.81;100.00
20394;BME280;10356;50.544;9.642;2023-08-01T03:57:53;96637.41;;;16.77;100.00
20394;BME280;10356;50.544;9.642;2023-08-01T04:00:20;96646.72;;;16.79;100.00
20394;BME280;10356;50.544;9.642;2023-08-01T04:02:46;96642.91;;;16.82;100.00
20394;BME280;10356;50.544;9.642;2023-08-01T04:05:13;96626.94;;;16.90;100.00
20394;BME280;10356;50.544;9.642;2023-08-01T04:07:39;96626.50;;;16.80;100.00
20394;BME280;10356;50.544;9.642;2023-08-01T04:10:06;96626.09;;;16.83;100.00
20394;BME280;10356;50.544;9.642;2023-08-01T04:12:34;96634.59;;;16.85;100.00
20394;BME280;10356;50.544;9.642;2023-08-01T04:15:01;96629.16;;;16.93;100.00
20394;BME280;10356;50.544;9.642;2023-08-01T04:17:27;96633.59;;;16.86;100.00
20394;BME280;10356;50.544;9.642;2023-08-01T04:19:54;96633.81;;;16.91;100.00
20394;BME280;10356;50.544;9.642;2023-08-01T04:22:21;96620.84;;;16.83;100.00
20394;BME280;10356;50.544;9.642;2023-08-01T04:24:47;96609.53;;;16.83;100.00
20394;BME280;10356;50.544;9.642;2023-08-01T04:27:14;96609.31;;;16.84;100.00
20394;BME280;10356;50.544;9.642;2023-08-01T04:29:41;96594.75;;;16.88;100.00
20394;BME280;10356;50.544;9.642;2023-08-01T04:32:07;96596.19;;;16.97;100.00
20394;BME280;10356;50.544;9.642;2023-08-01T04:34:36;96593.38;;;16.99;100.00
20394;BME280;10356;50.544;9.642;2023-08-01T04:37:02;96590.53;;;17.00;100.00
20394;BME280;10356;50.544;9.642;2023-08-01T04:39:29;96593.78;;;17.02;100.00
20394;BME280;10356;50.544;9.642;2023-08-01T04:41:55;96586.88;;;17.01;100.00
20394;BME280;10356;50.544;9.642;2023-08-01T04:44:22;96576.34;;;17.01;100.00
20394;BME280;10356;50.544;9.642;2023-08-01T04:46:50;96580.44;;;17.10;100.00
20394;BME280;10356;50.544;9.642;2023-08-01T04:49:16;96585.69;;;17.04;100.00
20394;BME280;10356;50.544;9.642;2023-08-01T04:51:42;96590.97;;;17.10;100.00
20394;BME280;10356;50.544;9.642;2023-08-01T04:54:09;96595.38;;;17.03;100.00
20394;BME280;10356;50.544;9.642;2023-08-01T04:56:35;96588.34;;;17.10;100.00
20394;BME280;10356;50.544;9.642;2023-08-01T04:59:02;96573.94;;;17.19;100.00
20394;BME280;10356;50.544;9.642;2023-08-01T05:01:28;96557.78;;;17.22;100.00
20394;BME280;10356;50.544;9.642;2023-08-01T05:03:56;96539.13;;;17.24;100.00
20394;BME280;10356;50.544;9.642;2023-08-01T05:06:23;96536.09;;;17.20;100.00
20394;BME280;10356;50.544;9.642;2023-08-01T05:08:49;96524.38;;;17.16;100.00
20394;BME280;10356;50.544;9.642;2023-08-01T05:11:16;96506.94;;;17.15;100.00
20394;BME280;10356;50.544;9.642;2023-08-01T05:13:42;96511.41;;;17.21;100.00
20394;BME280;10356;50.544;9.642;2023-08-01T05:16:09;96472.34;;;17.18;100.00
20394;BME280;10356;50.544;9.642;2023-08-01T05:18:35;96479.63;;;17.16;100.00
20394;BME280;10356;50.544;9.642;2023-08-01T05:21:03;96501.88;;;17.20;100.00
20394;BME280;10356;50.544;9.642;2023-08-01T05:23:30;96528.81;;;17.22;100.00
20394;BME280;10356;50.544;9.642;2023-08-01T05:25:56;96564.25;;;17.26;100.00
20394;BME280;10356;50.544;9.642;2023-08-01T05:28:22;96593.00;;;17.21;100.00
20394;BME280;10356;50.544;9.642;2023-08-01T05:30:49;96610.63;;;17.27;100.00
20394;BME280;10356;50.544;9.642;2023-08-01T05:33:15;96604.13;;;17.23;100.00
20394;BME280;10356;50.544;9.642;2023-08-01T05:35:42;96617.72;;;17.27;100.00
20394;BME280;10356;50.544;9.642;2023-08-01T05:38:10;96615.69;;;17.22;100.00
20394;BME280;10356;50.544;9.642;2023-08-01T05:40:36;96623.00;;;17.27;100.00
20394;BME280;10356;50.544;9.642;2023-08-01T05:43:03;96637.34;;;17.24;100.00
20394;BME280;10356;50.544;9.642;2023-08-01T05:45:30;96646.06;;;17.31;100.00
20394;BME280;10356;50.544;9.642;2023-08-01T05:47:56;96630.06;;;17.26;100.00
20394;BME280;10356;50.544;9.642;2023-08-01T05:50:23;96615.06;;;17.20;100.00
20394;BME280;10356;50.544;9.642;2023-08-01T05:52:49;96620.09;;;17.15;100.00
20394;BME280;10356;50.544;9.642;2023-08-01T05:55:17;96593.00;;;17.15;100.00
20394;BME280;10356;50.544;9.642;2023-08-01T05:57:43;96545.63;;;17.08;100.00
20394;BME280;10356;50.544;9.642;2023-08-01T06:00:11;96498.25;;;17.08;100.00
20394;BME280;10356;50.544;9.642;2023-08-01T06:02:38;96514.03;;;17.08;100.00
20394;BME280;10356;50.544;9.642;2023-08-01T06:05:05;96599.47;;;17.12;100.00
20394;BME280;10356;50.544;9.642;2023-08-01T06:07:32;96546.22;;;17.10;100.00
20394;BME280;10356;50.544;9.642;2023-08-01T06:09:58;96606.97;;;17.09;100.00
20394;BME280;10356;50.544;9.642;2023-08-01T06:12:26;96553.31;;;17.10;100.00
20394;BME280;10356;50.544;9.642;2023-08-01T06:14:54;96578.19;;;17.07;100.00
20394;BME280;10356;50.544;9.642;2023-08-01T06:17:20;96563.44;;;17.06;100.00
20394;BME280;10356;50.544;9.642;2023-08-01T06:19:47;96594.19;;;17.06;100.00
20394;BME280;10356;50.544;9.642;2023-08-01T06:22:15;96587.69;;;17.02;100.00
20394;BME280;10356;50.544;9.642;2023-08-01T06:24:41;96590.13;;;17.03;100.00
20394;BME280;10356;50.544;9.642;2023-08-01T06:27:08;96599.06;;;17.09;100.00
20394;BME280;10356;50.544;9.642;2023-08-01T06:29:56;96596.84;;;17.12;100.00
20394;BME280;10356;50.544;9.642;2023-08-01T06:32:23;96590.56;;;17.13;100.00
20394;BME280;10356;50.544;9.642;2023-08-01T06:34:49;96597.03;;;17.11;100.00
20394;BME280;10356;50.544;9.642;2023-08-01T06:37:16;96609.19;;;17.12;100.00
20394;BME280;10356;50.544;9.642;2023-08-01T06:39:42;96605.13;;;17.09;100.00
20394;BME280;10356;50.544;9.642;2023-08-01T06:42:09;96610.78;;;17.06;100.00
20394;BME280;10356;50.544;9.642;2023-08-01T06:44:37;96591.56;;;17.06;100.00
20394;BME280;10356;50.544;9.642;2023-08-01T06:47:04;96594.97;;;17.00;100.00
20394;BME280;10356;50.544;9.642;2023-08-01T06:49:30;96590.94;;;17.04;100.00
20394;BME280;10356;50.544;9.642;2023-08-01T06:51:57;96593.81;;;17.09;100.00
20394;BME280;10356;50.544;9.642;2023-08-01T06:54:23;96597.84;;;17.05;100.00
20394;BME280;10356;50.544;9.642;2023-08-01T06:56:50;96602.72;;;17.14;100.00
20394;BME280;10356;50.544;9.642;2023-08-01T06:59:16;96599.06;;;17.15;100.00
20394;BME280;10356;50.544;9.642;2023-08-01T07:01:44;96611.84;;;17.18;100.00
20394;BME280;10356;50.544;9.642;2023-08-01T07:04:11;96621.13;;;17.14;100.00
20394;BME280;10356;50.544;9.642;2023-08-01T07:06:37;96635.91;;;17.15;100.00
20394;BME280;10356;50.544;9.642;2023-08-01T07:09:04;96637.53;;;17.16;100.00
20394;BME280;10356;50.544;9.642;2023-08-01T07:11:31;96629.03;;;17.14;100.00
20394;BME280;10356;50.544;9.642;2023-08-01T07:13:57;96635.13;;;17.28;100.00
20394;BME280;10356;50.544;9.642;2023-08-01T07:16:24;96615.31;;;17.45;100.00
20394;BME280;10356;50.544;9.642;2023-08-01T07:18:52;96618.19;;;17.56;100.00
20394;BME280;10356;50.544;9.642;2023-08-01T07:21:18;96626.69;;;17.65;100.00
20394;BME280;10356;50.544;9.642;2023-08-01T07:23:45;96623.03;;;17.86;100.00
20394;BME280;10356;50.544;9.642;2023-08-01T07:26:13;96637.63;;;17.88;100.00
20394;BME280;10356;50.544;9.642;2023-08-01T07:28:40;96654.25;;;17.95;100.00
20394;BME280;10356;50.544;9.642;2023-08-01T07:31:07;96660.75;;;17.86;100.00
20394;BME280;10356;50.544;9.642;2023-08-01T07:33:34;96667.03;;;17.79;100.00
20394;BME280;10356;50.544;9.642;2023-08-01T07:36:02;96664.38;;;17.79;100.00
20394;BME280;10356;50.544;9.642;2023-08-01T07:38:29;96666.81;;;17.74;100.00
20394;BME280;10356;50.544;9.642;2023-08-01T07:40:57;96671.69;;;17.70;100.00
20394;BME280;10356;50.544;9.642;2023-08-01T07:43:28;96672.28;;;17.66;97.91
20394;BME280;10356;50.544;9.642;2023-08-01T07:45:55;96674.09;;;17.58;98.35
20394;BME280;10356;50.544;9.642;2023-08-01T07:48:22;96684.25;;;17.75;97.35
20394;BME280;10356;50.544;9.642;2023-08-01T07:50:49;96685.66;;;17.71;98.37
20394;BME280;10356;50.544;9.642;2023-08-01T07:53:16;96687.09;;;17.86;100.00
20394;BME280;10356;50.544;9.642;2023-08-01T07:55:43;96688.31;;;17.90;99.87
20394;BME280;10356;50.544;9.642;2023-08-01T07:58:09;96699.47;;;18.12;99.78
20394;BME280;10356;50.544;9.642;2023-08-01T08:00:36;96705.94;;;18.22;97.95
20394;BME280;10356;50.544;9.642;2023-08-01T08:03:03;96711.81;;;18.37;95.45
20394;BME280;10356;50.544;9.642;2023-08-01T08:05:30;96711.81;;;18.57;93.98
20394;BME280;10356;50.544;9.642;2023-08-01T08:07:57;96710.13;;;18.82;94.74
20394;BME280;10356;50.544;9.642;2023-08-01T08:10:25;96718.06;;;18.69;91.45
20394;BME280;10356;50.544;9.642;2023-08-01T08:12:51;96713.00;;;18.74;92.01
20394;BME280;10356;50.544;9.642;2023-08-01T08:15:18;96719.28;;;18.73;90.28
20394;BME280;10356;50.544;9.642;2023-08-01T08:17:45;96714.41;;;18.77;90.28
20394;BME280;10356;50.544;9.642;2023-08-01T08:20:11;96715.66;;;18.74;90.49
20394;BME280;10356;50.544;9.642;2023-08-01T08:22:38;96719.66;;;18.83;89.95
20394;BME280;10356;50.544;9.642;2023-08-01T08:25:05;96727.94;;;19.00;90.95
20394;BME280;10356;50.544;9.642;2023-08-01T08:27:32;96736.69;;;19.00;88.91
20394;BME280;10356;50.544;9.642;2023-08-01T08:29:59;96743.78;;;18.93;88.60
20394;BME280;10356;50.544;9.642;2023-08-01T08:32:26;96749.66;;;19.08;88.62
20394;BME280;10356;50.544;9.642;2023-08-01T08:34:52;96749.03;;;19.06;86.85
20394;BME280;10356;50.544;9.642;2023-08-01T08:37:19;96750.78;;;19.25;85.22
20394;BME280;10356;50.544;9.642;2023-08-01T08:39:46;96756.88;;;19.26;87.77
20394;BME280;10356;50.544;9.642;2023-08-01T08:42:13;96761.38;;;19.19;87.20
20394;BME280;10356;50.544;9.642;2023-08-01T08:44:43;96761.66;;;19.04;87.89
20394;BME280;10356;50.544;9.642;2023-08-01T08:47:11;96769.56;;;18.98;88.16
20394;BME280;10356;50.544;9.642;2023-08-01T08:49:38;96770.63;;;18.90;86.25
20394;BME280;10356;50.544;9.642;2023-08-01T08:52:06;96769.22;;;18.75;86.03
20394;BME280;10356;50.544;9.642;2023-08-01T08:54:34;96775.09;;;18.83;85.68
20394;BME280;10356;50.544;9.642;2023-08-01T08:57:04;96780.38;;;18.83;86.20
20394;BME280;10356;50.544;9.642;2023-08-01T08:59:32;96774.66;;;18.99;87.24
20394;BME280;10356;50.544;9.642;2023-08-01T09:02:01;96778.88;;;19.13;83.32
20394;BME280;10356;50.544;9.642;2023-08-01T09:04:29;96783.13;;;19.14;83.15
20394;BME280;10356;50.544;9.642;2023-08-01T09:07:01;96783.09;;;19.27;83.24
20394;BME280;10356;50.544;9.642;2023-08-01T09:09:28;96776.47;;;19.63;82.61
20394;BME280;10356;50.544;9.642;2023-08-01T09:11:55;96771.19;;;20.32;81.26
20394;BME280;10356;50.544;9.642;2023-08-01T09:14:22;96776.94;;;20.71;77.06
20394;BME280;10356;50.544;9.642;2023-08-01T09:16:49;96776.94;;;21.14;78.27
20394;BME280;10356;50.544;9.642;2023-08-01T09:19:18;96783.47;;;21.12;72.39
20394;BME280;10356;50.544;9.642;2023-08-01T09:21:46;96774.34;;;21.26;72.17
20394;BME280;10356;50.544;9.642;2023-08-01T09:24:14;96776.56;;;21.29;73.00
20394;BME280;10356;50.544;9.642;2023-08-01T09:26:40;96784.22;;;21.19;75.09
20394;BME280;10356;50.544;9.642;2023-08-01T09:29:07;96784.59;;;20.79;71.53
20394;BME280;10356;50.544;9.642;2023-08-01T09:31:36;96777.03;;;21.01;70.16
20394;BME280;10356;50.544;9.642;2023-08-01T09:34:03;96776.78;;;20.66;69.40
20394;BME280;10356;50.544;9.642;2023-08-01T09:36:32;96775.00;;;21.03;70.57
20394;BME280;10356;50.544;9.642;2023-08-01T09:39:00;96777.81;;;21.74;71.37
20394;BME280;10356;50.544;9.642;2023-08-01T09:41:28;96771.72;;;22.03;64.03
20394;BME280;10356;50.544;9.642;2023-08-01T09:43:55;96777.97;;;22.20;64.59
20394;BME280;10356;50.544;9.642;2023-08-01T09:46:21;96786.66;;;21.86;64.26
20394;BME280;10356;50.544;9.642;2023-08-01T09:48:48;96788.81;;;21.41;64.01
20394;BME280;10356;50.544;9.642;2023-08-01T09:51:16;96788.34;;;21.15;64.27
20394;BME280;10356;50.544;9.642;2023-08-01T09:53:49;96787.53;;;21.14;68.69
20394;BME280;10356;50.544;9.642;2023-08-01T09:56:18;96796.88;;;21.17;68.24
20394;BME280;10356;50.544;9.642;2023-08-01T09:58:46;96789.94;;;21.52;66.17
20394;BME280;10356;50.544;9.642;2023-08-01T10:01:14;96788.69;;;21.54;66.61
20394;BME280;10356;50.544;9.642;2023-08-01T10:03:45;96798.13;;;21.80;66.44
20394;BME280;10356;50.544;9.642;2023-08-01T10:06:14;96792.41;;;21.83;64.75
20394;BME280;10356;50.544;9.642;2023-08-01T10:08:44;96797.34;;;22.09;66.12
20394;BME280;10356;50.544;9.642;2023-08-01T10:11:12;96797.16;;;22.22;63.73
20394;BME280;10356;50.544;9.642;2023-08-01T10:13:41;96794.16;;;22.30;63.51
20394;BME280;10356;50.544;9.642;2023-08-01T10:16:09;96795.22;;;22.29;63.24
20394;BME280;10356;50.544;9.642;2023-08-01T10:18:36;96788.25;;;22.70;62.62
20394;BME280;10356;50.544;9.642;2023-08-01T10:21:04;96791.66;;;22.47;60.88
20394;BME280;10356;50.544;9.642;2023-08-01T10:23:32;96781.78;;;22.66;60.00
20394;BME280;10356;50.544;9.642;2023-08-01T10:25:59;96769.75;;;22.75;58.34
20394;BME280;10356;50.544;9.642;2023-08-01T10:28:34;96777.72;;;23.32;59.26
20394;BME280;10356;50.544;9.642;2023-08-01T10:31:09;96785.41;;;23.57;57.95
20394;BME280;10356;50.544;9.642;2023-08-01T10:33:36;96773.56;;;23.25;55.85
20394;BME280;10356;50.544;9.642;2023-08-01T10:36:12;96783.84;;;23.73;55.37
20394;BME280;10356;50.544;9.642;2023-08-01T10:38:45;96777.50;;;24.18;54.46
20394;BME280;10356;50.544;9.642;2023-08-01T10:41:18;96778.59;;;24.51;52.65
20394;BME280;10356;50.544;9.642;2023-08-01T10:43:46;96784.72;;;24.35;52.00
20394;BME280;10356;50.544;9.642;2023-08-01T10:46:13;96781.00;;;24.69;52.31
20394;BME280;10356;50.544;9.642;2023-08-01T10:48:48;96780.28;;;24.57;52.46
20394;BME280;10356;50.544;9.642;2023-08-01T10:51:14;96772.78;;;24.87;52.29
20394;BME280;10356;50.544;9.642;2023-08-01T10:53:41;96773.25;;;24.67;50.62
20394;BME280;10356;50.544;9.642;2023-08-01T10:56:07;96775.75;;;24.41;52.47
20394;BME280;10356;50.544;9.642;2023-08-01T10:58:34;96774.00;;;24.01;53.10
20394;BME280;10356;50.544;9.642;2023-08-01T11:01:02;96781.16;;;23.45;55.36
20394;BME280;10356;50.544;9.642;2023-08-01T11:03:35;96783.50;;;22.95;58.75
20394;BME280;10356;50.544;9.642;2023-08-01T11:06:01;96793.44;;;22.65;58.53
20394;BME280;10356;50.544;9.642;2023-08-01T11:08:34;96798.44;;;22.20;58.71
20394;BME280;10356;50.544;9.642;2023-08-01T11:11:01;96804.25;;;21.81;59.58
20394;BME280;10356;50.544;9.642;2023-08-01T11:13:27;96807.13;;;21.79;60.70
20394;BME280;10356;50.544;9.642;2023-08-01T11:15:53;96804.66;;;22.25;61.65
20394;BME280;10356;50.544;9.642;2023-08-01T11:18:23;96811.38;;;22.28;59.11
20394;BME280;10356;50.544;9.642;2023-08-01T11:20:49;96800.69;;;22.16;59.22
20394;BME280;10356;50.544;9.642;2023-08-01T11:23:16;96810.94;;;22.01;58.52
20394;BME280;10356;50.544;9.642;2023-08-01T11:25:43;96810.25;;;21.58;60.51
20394;BME280;10356;50.544;9.642;2023-08-01T11:28:16;96815.19;;;21.54;62.26
20394;BME280;10356;50.544;9.642;2023-08-01T11:30:43;96805.28;;;21.61;61.60
20394;BME280;10356;50.544;9.642;2023-08-01T11:33:14;96804.50;;;21.61;60.68
20394;BME280;10356;50.544;9.642;2023-08-01T11:35:42;96809.34;;;21.64;59.80
20394;BME280;10356;50.544;9.642;2023-08-01T11:38:09;96805.81;;;21.70;59.49
20394;BME280;10356;50.544;9.642;2023-08-01T11:40:35;96812.81;;;21.83;58.00
20394;BME280;10356;50.544;9.642;2023-08-01T11:43:02;96821.50;;;22.19;55.74
20394;BME280;10356;50.544;9.642;2023-08-01T11:45:29;96801.63;;;22.75;54.86
20394;BME280;10356;50.544;9.642;2023-08-01T11:47:56;96816.06;;;23.13;54.81
20394;BME280;10356;50.544;9.642;2023-08-01T11:50:23;96819.91;;;23.06;55.18
20394;BME280;10356;50.544;9.642;2023-08-01T11:52:51;96816.88;;;22.91;55.96
20394;BME280;10356;50.544;9.642;2023-08-01T11:55:22;96819.00;;;23.35;54.49
20394;BME280;10356;50.544;9.642;2023-08-01T11:57:53;96808.56;;;23.45;54.58
20394;BME280;10356;50.544;9.642;2023-08-01T12:00:24;96816.53;;;23.45;54.05
20394;BME280;10356;50.544;9.642;2023-08-01T12:02:50;96812.41;;;23.77;54.12
20394;BME280;10356;50.544;9.642;2023-08-01T12:05:21;96822.31;;;24.22;55.39
20394;BME280;10356;50.544;9.642;2023-08-01T12:07:48;96823.25;;;23.87;51.18
20394;BME280;10356;50.544;9.642;2023-08-01T12:10:16;96817.16;;;23.64;52.89
20394;BME280;10356;50.544;9.642;2023-08-01T12:12:46;96837.88;;;23.73;52.91
20394;BME280;10356;50.544;9.642;2023-08-01T12:15:14;96827.53;;;24.16;49.97
20394;BME280;10356;50.544;9.642;2023-08-01T12:17:40;96827.41;;;24.40;48.46
20394;BME280;10356;50.544;9.642;2023-08-01T12:20:08;96826.75;;;24.33;49.58
20394;BME280;10356;50.544;9.642;2023-08-01T12:22:35;96836.94;;;24.36;48.71
20394;BME280;10356;50.544;9.642;2023-08-01T12:25:01;96835.47;;;24.45;48.93
20394;BME280;10356;50.544;9.642;2023-08-01T12:27:29;96826.13;;;24.59;49.14
20394;BME280;10356;50.544;9.642;2023-08-01T12:29:56;96837.66;;;24.76;48.65
20394;BME280;10356;50.544;9.642;2023-08-01T12:32:33;96833.91;;;24.60;48.40
20394;BME280;10356;50.544;9.642;2023-08-01T12:35:02;96836.19;;;24.24;48.81
20394;BME280;10356;50.544;9.642;2023-08-01T12:37:29;96842.06;;;23.97;50.47
20394;BME280;10356;50.544;9.642;2023-08-01T12:39:57;96836.72;;;24.09;51.12
20394;BME280;10356;50.544;9.642;2023-08-01T12:42:24;96844.81;;;24.31;50.09
20394;BME280;10356;50.544;9.642;2023-08-01T12:44:53;96850.81;;;24.38;49.97
20394;BME280;10356;50.544;9.642;2023-08-01T12:47:21;96845.19;;;23.94;50.34
20394;BME280;10356;50.544;9.642;2023-08-01T12:49:48;96842.91;;;23.86;49.64
20394;BME280;10356;50.544;9.642;2023-08-01T12:52:22;96844.66;;;23.81;49.88
20394;BME280;10356;50.544;9.642;2023-08-01T12:54:50;96851.59;;;24.38;49.08